createdAt,value
2023-02-22T00:02:11.171Z,6.27
2023-02-22T00:05:17.098Z,6.20
2023-02-22T00:08:24.452Z,6.25
2023-02-22T00:11:27.598Z,6.43
2023-02-22T00:14:30.377Z,6.26
2023-02-22T00:17:34.293Z,6.39
2023-02-22T00:20:40.548Z,6.50
2023-02-22T00:23:49.108Z,6.61
2023-02-22T00:26:55.811Z,6.67
2023-02-22T00:29:59.096Z,6.64
2023-02-22T00:33:02.101Z,6.49
2023-02-22T00:36:05.529Z,6.54
2023-02-22T00:39:10.038Z,6.54
2023-02-22T00:42:14.431Z,6.44
2023-02-22T00:45:21.890Z,6.46
2023-02-22T00:48:25.559Z,6.65
2023-02-22T00:51:28.983Z,6.49
2023-02-22T00:54:31.989Z,6.56
2023-02-22T00:57:35.371Z,6.69
2023-02-22T01:00:41.786Z,6.84
2023-02-22T01:03:45.156Z,6.72
2023-02-22T01:06:48.354Z,6.74
2023-02-22T01:09:51.127Z,6.77
2023-02-22T01:12:54.985Z,6.76
2023-02-22T01:15:57.694Z,6.67
2023-02-22T01:19:01.558Z,6.66
2023-02-22T01:22:05.666Z,6.46
2023-02-22T01:25:10.789Z,6.61
2023-02-22T01:28:14.078Z,6.52
2023-02-22T01:31:18.045Z,6.28
2023-02-22T01:34:22.907Z,6.51
2023-02-22T01:37:25.851Z,6.75
2023-02-22T01:40:36.922Z,6.51
2023-02-22T01:43:40.021Z,6.74
2023-02-22T01:46:42.830Z,6.80
2023-02-22T01:49:50.285Z,6.52
2023-02-22T01:52:53.309Z,6.38
2023-02-22T01:55:57.296Z,6.44
2023-02-22T01:59:03.896Z,6.31
2023-02-22T02:02:07.405Z,6.34
2023-02-22T02:05:11.011Z,6.52
2023-02-22T02:08:39.207Z,6.71
2023-02-22T02:11:42.774Z,6.78
2023-02-22T02:14:45.924Z,6.75
2023-02-22T02:17:50.441Z,6.67
2023-02-22T02:21:10.573Z,6.73
2023-02-22T02:24:33.229Z,6.70
2023-02-22T02:27:45.298Z,6.86
2023-02-22T02:31:11.182Z,6.82
2023-02-22T02:34:32.297Z,6.71
2023-02-22T02:38:22.317Z,6.61
2023-02-22T02:41:30.170Z,6.55
2023-02-22T02:44:38.944Z,6.53
2023-02-22T02:47:48.123Z,6.54
2023-02-22T02:50:51.539Z,6.46
2023-02-22T02:53:56.134Z,6.59
2023-02-22T02:56:59.298Z,6.62
2023-02-22T03:00:02.355Z,6.65
2023-02-22T03:03:25.312Z,6.62
2023-02-22T03:07:08.520Z,6.54
2023-02-22T03:10:43.416Z,6.52
2023-02-22T03:14:30.004Z,6.45
2023-02-22T03:17:52.842Z,6.16
2023-02-22T03:21:29.944Z,6.19
2023-02-22T03:25:02.325Z,6.26
2023-02-22T03:28:11.924Z,6.25
2023-02-22T03:31:21.759Z,6.21
2023-02-22T03:34:35.342Z,6.17
2023-02-22T03:37:46.714Z,6.01
2023-02-22T03:40:54.658Z,5.91
2023-02-22T03:44:05.705Z,5.62
2023-02-22T03:47:14.459Z,5.73
2023-02-22T03:50:20.380Z,5.75
2023-02-22T03:53:23.678Z,5.45
2023-02-22T03:56:36.081Z,5.59
2023-02-22T03:59:40.451Z,5.48
2023-02-22T04:02:43.257Z,5.42
2023-02-22T04:05:47.204Z,5.19
2023-02-22T04:08:50.054Z,5.16
2023-02-22T04:11:53.384Z,5.21
2023-02-22T04:14:56.364Z,5.19
2023-02-22T04:18:00.172Z,5.25
2023-02-22T04:21:04.329Z,5.22
2023-02-22T04:24:08.080Z,5.16
2023-02-22T04:27:10.960Z,5.43
2023-02-22T04:30:16.998Z,5.55
2023-02-22T04:33:19.936Z,5.53
2023-02-22T04:36:23.195Z,5.53
2023-02-22T04:39:26.197Z,5.82
2023-02-22T04:42:29.975Z,5.95
2023-02-22T04:45:32.723Z,5.79
2023-02-22T04:48:36.734Z,5.72
2023-02-22T04:51:39.722Z,5.76
2023-02-22T04:54:43.208Z,5.86
2023-02-22T04:57:46.024Z,5.85
2023-02-22T05:00:49.253Z,5.82
2023-02-22T05:03:52.094Z,5.82
2023-02-22T05:06:55.210Z,6.00
2023-02-22T05:09:58.013Z,6.13
2023-02-22T05:13:01.958Z,6.14
2023-02-22T05:16:06.175Z,6.11
2023-02-22T05:19:09.376Z,6.25
2023-02-22T05:22:12.012Z,6.23
2023-02-22T05:25:15.179Z,6.43
2023-02-22T05:28:17.919Z,6.50
2023-02-22T05:31:21.023Z,6.57
2023-02-22T05:34:24.150Z,6.58
2023-02-22T05:37:27.647Z,6.51
2023-02-22T05:40:31.692Z,6.59
2023-02-22T05:43:34.773Z,6.64
2023-02-22T05:46:37.552Z,6.38
2023-02-22T05:49:40.829Z,6.45
2023-02-22T05:52:43.982Z,6.63
2023-02-22T05:55:47.175Z,6.73
2023-02-22T05:58:50.167Z,6.33
2023-02-22T06:01:53.293Z,6.31
2023-02-22T06:04:56.535Z,6.40
2023-02-22T06:07:59.597Z,6.49
2023-02-22T06:11:02.765Z,6.44
2023-02-22T06:14:05.494Z,6.50
2023-02-22T06:17:08.516Z,6.31
2023-02-22T06:20:13.649Z,6.34
2023-02-22T06:23:16.852Z,6.33
2023-02-22T06:26:20.045Z,6.34
2023-02-22T06:29:27.630Z,6.31
2023-02-22T06:32:30.389Z,6.25
2023-02-22T06:35:33.453Z,6.27
2023-02-22T06:38:36.209Z,6.35
2023-02-22T06:41:39.351Z,6.46
2023-02-22T06:44:42.027Z,6.43
2023-02-22T06:47:45.455Z,6.46
2023-02-22T06:50:48.121Z,6.57
2023-02-22T06:53:51.171Z,6.62
2023-02-22T06:56:53.825Z,6.72
2023-02-22T06:59:57.625Z,6.72
2023-02-22T07:03:00.945Z,6.93
2023-02-22T07:06:05.064Z,6.91
2023-02-22T07:09:07.840Z,7.00
2023-02-22T07:12:11.076Z,7.11
2023-02-22T07:15:14.232Z,7.17
2023-02-22T07:18:17.322Z,7.21
2023-02-22T07:21:20.070Z,7.28
2023-02-22T07:24:23.177Z,7.40
2023-02-22T07:27:25.900Z,7.45
2023-02-22T07:30:31.662Z,7.50
2023-02-22T07:33:35.671Z,7.59
2023-02-22T07:36:38.801Z,7.64
2023-02-22T07:39:43.904Z,7.77
2023-02-22T07:43:14.613Z,7.85
2023-02-22T07:46:17.379Z,7.89
2023-02-22T07:49:20.552Z,7.90
2023-02-22T07:52:23.184Z,7.94
2023-02-22T07:55:28.831Z,7.96
2023-02-22T07:58:32.773Z,8.02
2023-02-22T08:01:37.448Z,8.06
2023-02-22T08:04:40.595Z,8.07
2023-02-22T08:07:43.549Z,8.07
2023-02-22T08:10:47.458Z,8.24
2023-02-22T08:13:50.209Z,8.28
2023-02-22T08:16:53.331Z,8.38
2023-02-22T08:19:56.117Z,8.62
2023-02-22T08:22:59.092Z,8.78
2023-02-22T08:26:08.064Z,8.86
2023-02-22T08:29:11.069Z,8.92
2023-02-22T08:32:13.973Z,8.98
2023-02-22T08:35:18.593Z,9.13
2023-02-22T08:38:25.172Z,9.11
2023-02-22T08:41:28.192Z,9.41
2023-02-22T08:44:30.867Z,9.52
2023-02-22T08:47:34.475Z,9.61
2023-02-22T08:50:38.350Z,9.80
2023-02-22T08:53:41.395Z,9.87
2023-02-22T08:56:45.153Z,9.87
2023-02-22T08:59:48.143Z,9.85
2023-02-22T09:02:54.268Z,9.85
2023-02-22T09:05:59.709Z,9.88
2023-02-22T09:09:02.951Z,9.97
2023-02-22T09:12:06.333Z,10.09
2023-02-22T09:15:09.799Z,10.15
2023-02-22T09:18:14.860Z,10.13
2023-02-22T09:21:18.170Z,10.09
2023-02-22T09:24:21.714Z,10.15
2023-02-22T09:27:24.600Z,10.04
2023-02-22T09:30:34.075Z,10.19
2023-02-22T09:33:36.880Z,10.21
2023-02-22T09:36:44.360Z,10.33
2023-02-22T09:39:47.182Z,10.52
2023-02-22T09:43:01.072Z,10.64
2023-02-22T09:46:19.718Z,10.84
2023-02-22T09:49:40.069Z,10.94
2023-02-22T09:52:58.072Z,11.18
2023-02-22T09:56:06.998Z,11.49
2023-02-22T09:59:15.861Z,11.91
2023-02-22T10:02:31.843Z,12.46
2023-02-22T10:05:39.984Z,13.40
2023-02-22T10:08:45.062Z,14.05
2023-02-22T10:12:16.544Z,14.91
2023-02-22T10:15:41.598Z,15.53
2023-02-22T10:18:48.179Z,16.76
2023-02-22T10:21:50.804Z,16.68
2023-02-22T10:25:00.202Z,18.30
2023-02-22T10:28:28.394Z,18.92
2023-02-22T10:31:34.138Z,18.64
2023-02-22T10:34:43.391Z,19.08
2023-02-22T10:37:48.453Z,19.22
2023-02-22T10:41:17.542Z,18.50
2023-02-22T10:44:20.714Z,18.48
2023-02-22T10:47:24.852Z,19.09
2023-02-22T10:50:32.260Z,20.10
2023-02-22T10:53:38.484Z,20.28
2023-02-22T10:56:55.171Z,19.60
2023-02-22T10:59:58.549Z,19.74
2023-02-22T11:03:18.129Z,19.31
2023-02-22T11:06:21.943Z,20.12
2023-02-22T11:09:25.678Z,20.31
2023-02-22T11:12:32.863Z,20.39
2023-02-22T11:15:36.212Z,20.00
2023-02-22T11:18:39.053Z,19.66
2023-02-22T11:21:43.288Z,19.38
2023-02-22T11:25:02.604Z,19.48
2023-02-22T11:28:15.097Z,19.35
2023-02-22T11:31:21.997Z,20.58
2023-02-22T11:34:26.695Z,21.08
2023-02-22T11:37:36.745Z,20.91
2023-02-22T11:40:40.370Z,21.00
2023-02-22T11:43:48.216Z,20.86
2023-02-22T11:46:55.863Z,21.06
2023-02-22T11:49:58.617Z,20.36
2023-02-22T11:53:40.097Z,19.49
2023-02-22T11:56:49.986Z,19.52
2023-02-22T12:00:17.034Z,19.65
2023-02-22T12:03:50.100Z,19.39
2023-02-22T12:07:10.781Z,19.98
2023-02-22T12:10:47.223Z,19.92
2023-02-22T12:14:07.831Z,19.61
2023-02-22T12:17:26.180Z,19.52
2023-02-22T12:20:47.815Z,19.98
2023-02-22T12:24:07.486Z,19.69
2023-02-22T12:27:22.604Z,19.19
2023-02-22T12:30:34.571Z,18.19
2023-02-22T12:34:20.174Z,17.03
2023-02-22T12:37:29.168Z,16.27
2023-02-22T12:40:54.761Z,15.26
2023-02-22T12:44:10.130Z,15.10
2023-02-22T12:47:21.839Z,14.79
2023-02-22T12:50:29.764Z,14.35
2023-02-22T12:53:37.307Z,14.10
2023-02-22T12:56:56.283Z,13.94
2023-02-22T13:00:10.454Z,13.73
2023-02-22T13:03:35.148Z,13.66
2023-02-22T13:07:08.865Z,13.63
2023-02-22T13:10:31.527Z,13.70
2023-02-22T13:13:55.630Z,13.60
2023-02-22T13:17:24.941Z,13.69
2023-02-22T13:20:34.436Z,13.67
2023-02-22T13:23:50.637Z,13.73
2023-02-22T13:27:22.969Z,13.94
2023-02-22T13:30:51.793Z,14.06
2023-02-22T13:34:40.347Z,14.03
2023-02-22T13:38:05.978Z,14.03
2023-02-22T13:41:20.851Z,14.03
2023-02-22T13:45:13.299Z,13.79
2023-02-22T13:48:24.897Z,13.70
2023-02-22T13:51:37.180Z,13.71
2023-02-22T13:55:11.334Z,13.59
2023-02-22T13:58:15.612Z,13.41
2023-02-22T14:01:42.682Z,13.35
2023-02-22T14:04:45.780Z,13.38
2023-02-22T14:07:49.578Z,13.43
2023-02-22T14:10:55.951Z,13.35
2023-02-22T14:14:01.204Z,13.37
2023-02-22T14:17:28.983Z,13.23
2023-02-22T14:20:40.400Z,13.24
2023-02-22T14:23:45.958Z,13.18
2023-02-22T14:26:59.761Z,13.17
2023-02-22T14:30:02.978Z,13.21
2023-02-22T14:33:44.346Z,13.15
2023-02-22T14:36:58.868Z,13.15
2023-02-22T14:40:13.253Z,13.14
2023-02-22T14:43:21.319Z,13.08
2023-02-22T14:46:29.679Z,13.04
2023-02-22T14:49:42.319Z,12.98
2023-02-22T14:52:48.993Z,13.08
2023-02-22T14:56:02.863Z,13.08
2023-02-22T14:59:17.870Z,13.12
2023-02-22T15:02:26.133Z,13.13
2023-02-22T15:05:38.712Z,13.14
2023-02-22T15:08:48.959Z,13.03
2023-02-22T15:12:04.228Z,12.97
2023-02-22T15:15:14.529Z,12.95
2023-02-22T15:18:22.255Z,12.95
2023-02-22T15:21:28.562Z,12.91
2023-02-22T15:24:34.903Z,12.82
2023-02-22T15:27:41.437Z,12.81
2023-02-22T15:30:44.772Z,12.80
2023-02-22T15:33:47.890Z,12.77
2023-02-22T15:36:54.790Z,12.70
2023-02-22T15:40:21.116Z,12.71
2023-02-22T15:43:25.415Z,12.71
2023-02-22T15:46:29.222Z,12.64
2023-02-22T15:49:37.241Z,12.60
2023-02-22T15:52:40.375Z,12.55
2023-02-22T15:55:50.054Z,12.51
2023-02-22T15:59:00.996Z,12.43
2023-02-22T16:02:04.341Z,12.43
2023-02-22T16:05:12.410Z,12.41
2023-02-22T16:08:23.473Z,12.35
2023-02-22T16:11:32.189Z,12.33
2023-02-22T16:14:35.016Z,12.31
2023-02-22T16:18:02.347Z,12.34
2023-02-22T16:21:13.282Z,12.32
2023-02-22T16:24:27.036Z,12.33
2023-02-22T16:27:29.914Z,12.31
2023-02-22T16:30:38.665Z,12.23
2023-02-22T16:33:43.517Z,12.22
2023-02-22T16:36:52.059Z,12.04
2023-02-22T16:39:56.847Z,12.01
2023-02-22T16:43:03.049Z,11.96
2023-02-22T16:46:07.232Z,12.10
2023-02-22T16:49:12.826Z,12.17
2023-02-22T16:52:15.963Z,12.08
2023-02-22T16:55:22.740Z,12.08
2023-02-22T16:58:30.073Z,12.11
2023-02-22T17:01:35.209Z,12.12
2023-02-22T17:04:40.414Z,12.20
2023-02-22T17:07:45.417Z,12.10
2023-02-22T17:10:51.751Z,12.23
2023-02-22T17:13:55.903Z,12.12
2023-02-22T17:16:59.919Z,12.10
2023-02-22T17:20:12.011Z,12.19
2023-02-22T17:23:15.592Z,12.23
2023-02-22T17:26:19.697Z,12.26
2023-02-22T17:29:23.152Z,12.24
2023-02-22T17:32:26.927Z,11.97
2023-02-22T17:35:36.507Z,12.15
2023-02-22T17:38:42.662Z,12.07
2023-02-22T17:41:46.212Z,12.00
2023-02-22T17:44:50.333Z,11.95
2023-02-22T17:47:53.657Z,12.02
2023-02-22T17:50:57.373Z,11.96
2023-02-22T17:54:02.177Z,11.96
2023-02-22T17:57:06.135Z,12.14
2023-02-22T18:00:16.326Z,12.03
2023-02-22T18:03:26.173Z,11.99
2023-02-22T18:06:33.393Z,11.92
2023-02-22T18:09:38.970Z,11.88
2023-02-22T18:12:44.308Z,11.80
2023-02-22T18:15:49.231Z,11.86
2023-02-22T18:18:54.203Z,11.87
2023-02-22T18:22:00.405Z,11.94
2023-02-22T18:25:04.241Z,12.01
2023-02-22T18:28:09.128Z,11.80
2023-02-22T18:31:16.020Z,11.74
2023-02-22T18:34:19.678Z,11.61
2023-02-22T18:37:24.674Z,11.42
2023-02-22T18:40:32.433Z,11.50
2023-02-22T18:43:38.653Z,11.42
2023-02-22T18:46:46.586Z,11.12
2023-02-22T18:49:51.393Z,11.03
2023-02-22T18:52:56.160Z,11.13
2023-02-22T18:56:08.028Z,11.21
2023-02-22T18:59:13.435Z,11.05
2023-02-22T19:02:21.935Z,11.02
2023-02-22T19:05:25.805Z,11.08
2023-02-22T19:08:33.334Z,11.05
2023-02-22T19:11:39.101Z,10.94
2023-02-22T19:14:43.178Z,11.05
2023-02-22T19:17:47.946Z,11.13
2023-02-22T19:20:59.968Z,10.70
2023-02-22T19:24:06.808Z,10.74
2023-02-22T19:27:11.763Z,10.77
2023-02-22T19:30:20.857Z,10.86
2023-02-22T19:33:26.336Z,10.74
2023-02-22T19:36:32.405Z,10.44
2023-02-22T19:39:39.136Z,10.56
2023-02-22T19:42:46.561Z,10.27
2023-02-22T19:45:50.460Z,10.47
2023-02-22T19:48:59.122Z,10.45
2023-02-22T19:52:07.885Z,10.30
2023-02-22T19:55:19.917Z,10.31
2023-02-22T19:58:24.506Z,10.42
2023-02-22T20:01:33.979Z,10.38
2023-02-22T20:04:39.061Z,10.45
2023-02-22T20:07:44.795Z,10.56
2023-02-22T20:10:49.111Z,10.62
2023-02-22T20:13:57.656Z,10.50
2023-02-22T20:17:02.447Z,10.55
2023-02-22T20:20:07.586Z,10.40
2023-02-22T20:23:15.675Z,10.45
2023-02-22T20:26:24.942Z,10.48
2023-02-22T20:29:32.352Z,10.52
2023-02-22T20:32:40.912Z,10.52
2023-02-22T20:35:46.517Z,10.51
2023-02-22T20:38:55.038Z,10.71
2023-02-22T20:42:02.151Z,10.63
2023-02-22T20:45:07.186Z,10.53
2023-02-22T20:48:12.351Z,10.42
2023-02-22T20:51:17.460Z,10.37
2023-02-22T20:54:22.366Z,10.30
2023-02-22T20:57:25.776Z,10.40
2023-02-22T21:00:30.816Z,10.43
2023-02-22T21:03:36.088Z,10.48
2023-02-22T21:06:42.361Z,10.45
2023-02-22T21:09:46.326Z,10.44
2023-02-22T21:12:52.292Z,10.49
2023-02-22T21:15:56.300Z,10.57
2023-02-22T21:19:04.524Z,10.56
2023-02-22T21:22:09.011Z,10.69
2023-02-22T21:25:14.723Z,10.55
2023-02-22T21:28:18.713Z,10.17
2023-02-22T21:31:24.960Z,10.26
2023-02-22T21:34:32.051Z,10.19
2023-02-22T21:37:35.826Z,10.24
2023-02-22T21:40:39.552Z,10.31
2023-02-22T21:43:44.715Z,10.26
2023-02-22T21:46:51.035Z,10.47
2023-02-22T21:49:54.888Z,10.38
2023-02-22T21:52:58.405Z,10.43
2023-02-22T21:56:06.021Z,10.31
2023-02-22T21:59:15.739Z,9.91
2023-02-22T22:02:21.111Z,10.06
2023-02-22T22:05:34.868Z,10.10
2023-02-22T22:08:40.347Z,9.97
2023-02-22T22:11:43.419Z,9.81
2023-02-22T22:14:46.195Z,9.80
2023-02-22T22:17:49.316Z,9.94
2023-02-22T22:20:52.069Z,9.85
2023-02-22T22:23:56.343Z,9.89
2023-02-22T22:27:03.826Z,9.88
2023-02-22T22:30:08.333Z,10.00
2023-02-22T22:33:11.590Z,10.10
2023-02-22T22:36:17.215Z,10.05
2023-02-22T22:39:21.337Z,10.12
2023-02-22T22:42:25.142Z,9.97
2023-02-22T22:45:27.961Z,9.96
2023-02-22T22:48:36.168Z,10.09
2023-02-22T22:51:41.170Z,9.96
2023-02-22T22:54:44.342Z,10.17
2023-02-22T22:57:47.146Z,10.05
2023-02-22T23:00:50.254Z,9.98
2023-02-22T23:04:01.560Z,10.03
2023-02-22T23:07:06.794Z,10.05
2023-02-22T23:10:12.832Z,10.09
2023-02-22T23:13:15.888Z,10.34
2023-02-22T23:16:20.022Z,10.27
2023-02-22T23:19:23.045Z,10.17
2023-02-22T23:22:27.591Z,10.19
2023-02-22T23:25:30.629Z,10.20
2023-02-22T23:28:33.329Z,10.28
2023-02-22T23:31:39.846Z,10.42
2023-02-22T23:34:42.720Z,10.37
2023-02-22T23:37:53.124Z,10.34
2023-02-22T23:40:57.821Z,10.42
2023-02-22T23:44:01.119Z,10.38
2023-02-22T23:47:04.529Z,10.42
2023-02-22T23:50:13.651Z,10.38
2023-02-22T23:53:16.468Z,10.29
2023-02-22T23:56:22.152Z,10.20
2023-02-22T23:59:26.778Z,10.26
